Terminal Aerodrome Forecast
Issued by NWS Sioux Falls, SD

Home | Current Version | Previous Version | Text Only | Print | Product List | Glossary On
Versions: 1 2 3 4 5 6 7 8 9 10 11 12 13 14 15 16 17
000
FTUS43 KFSD 181739
TAFSUX
TAF
KSUX 181739Z 1818/1918 19022G34KT P6SM FEW250
     FM182100 19012KT P6SM FEW250
     FM190100 VRB03KT P6SM SCT150
     FM190300 36010KT P6SM BKN015
     FM190500 36014KT 5SM BR VCSH BKN010
     FM190600 01013KT 4SM -FZDZ SCT008 OVC010
     FM191100 01017G25KT 3SM -FZRAPL OVC008=

USA.gov is the U.S. government's official web portal to all federal, state and local government web resources and services.